sensor_id;sensor_type;location;lat;lon;timestamp;temperature;humidity
24260;DHT22;12384;48.112;18.418;2023-10-19T12:36:29;11.10;72.20
24260;DHT22;12384;48.112;18.418;2023-10-19T12:38:59;11.10;73.00
24260;DHT22;12384;48.112;18.418;2023-10-19T12:41:28;11.10;73.80
24260;DHT22;12384;48.112;18.418;2023-10-19T12:43:57;11.10;74.80
24260;DHT22;12384;48.112;18.418;2023-10-19T12:46:26;11.20;75.70
24260;DHT22;12384;48.112;18.418;2023-10-19T12:48:57;11.20;76.00
24260;DHT22;12384;48.112;18.418;2023-10-19T12:51:26;11.30;76.30
24260;DHT22;12384;48.112;18.418;2023-10-19T12:53:55;11.30;76.40
24260;DHT22;12384;48.112;18.418;2023-10-19T12:56:24;11.30;76.10
24260;DHT22;12384;48.112;18.418;2023-10-19T12:58:56;11.30;75.90
24260;DHT22;12384;48.112;18.418;2023-10-19T13:01:25;11.40;76.20
24260;DHT22;12384;48.112;18.418;2023-10-19T13:03:55;11.40;76.30
24260;DHT22;12384;48.112;18.418;2023-10-19T13:06:25;11.40;76.30
24260;DHT22;12384;48.112;18.418;2023-10-19T13:08:58;11.40;76.40
24260;DHT22;12384;48.112;18.418;2023-10-19T13:11:26;11.50;76.40
24260;DHT22;12384;48.112;18.418;2023-10-19T13:13:59;11.50;76.40
24260;DHT22;12384;48.112;18.418;2023-10-19T13:16:29;11.50;76.20
24260;DHT22;12384;48.112;18.418;2023-10-19T13:18:58;11.50;75.90
24260;DHT22;12384;48.112;18.418;2023-10-19T13:21:36;11.50;75.50
24260;DHT22;12384;48.112;18.418;2023-10-19T13:24:07;11.50;75.60
24260;DHT22;12384;48.112;18.418;2023-10-19T13:26:36;11.40;75.20
24260;DHT22;12384;48.112;18.418;2023-10-19T13:29:05;11.40;75.50
24260;DHT22;12384;48.112;18.418;2023-10-19T13:31:34;11.40;76.00
24260;DHT22;12384;48.112;18.418;2023-10-19T13:34:02;11.40;76.50
24260;DHT22;12384;48.112;18.418;2023-10-19T13:36:37;11.40;76.90
24260;DHT22;12384;48.112;18.418;2023-10-19T13:39:08;11.40;77.30
24260;DHT22;12384;48.112;18.418;2023-10-19T13:41:40;11.50;77.60
24260;DHT22;12384;48.112;18.418;2023-10-19T13:44:09;11.50;77.80
24260;DHT22;12384;48.112;18.418;2023-10-19T13:46:39;11.50;77.60
24260;DHT22;12384;48.112;18.418;2023-10-19T13:49:07;11.40;77.70
24260;DHT22;12384;48.112;18.418;2023-10-19T13:51:37;11.50;78.00
24260;DHT22;12384;48.112;18.418;2023-10-19T13:54:07;11.50;78.30
24260;DHT22;12384;48.112;18.418;2023-10-19T13:56:36;11.50;79.10
24260;DHT22;12384;48.112;18.418;2023-10-19T13:59:04;11.40;78.30
24260;DHT22;12384;48.112;18.418;2023-10-19T14:01:33;11.40;78.40
24260;DHT22;12384;48.112;18.418;2023-10-19T14:04:02;11.40;78.30
24260;DHT22;12384;48.112;18.418;2023-10-19T14:06:31;11.40;78.40
24260;DHT22;12384;48.112;18.418;2023-10-19T14:08:59;11.40;79.00
24260;DHT22;12384;48.112;18.418;2023-10-19T14:11:30;11.30;78.90
24260;DHT22;12384;48.112;18.418;2023-10-19T14:13:59;11.30;79.60
24260;DHT22;12384;48.112;18.418;2023-10-19T14:16:27;11.30;80.20
24260;DHT22;12384;48.112;18.418;2023-10-19T14:18:56;11.30;81.00
24260;DHT22;12384;48.112;18.418;2023-10-19T14:21:24;11.30;81.30
24260;DHT22;12384;48.112;18.418;2023-10-19T14:23:55;11.30;82.00
24260;DHT22;12384;48.112;18.418;2023-10-19T14:26:23;11.30;82.90
24260;DHT22;12384;48.112;18.418;2023-10-19T14:28:53;11.30;83.40
24260;DHT22;12384;48.112;18.418;2023-10-19T14:31:22;11.30;83.80
24260;DHT22;12384;48.112;18.418;2023-10-19T14:33:51;11.30;84.10
24260;DHT22;12384;48.112;18.418;2023-10-19T14:36:19;11.30;84.40
24260;DHT22;12384;48.112;18.418;2023-10-19T14:38:50;11.20;85.00
24260;DHT22;12384;48.112;18.418;2023-10-19T14:41:18;11.20;85.50
24260;DHT22;12384;48.112;18.418;2023-10-19T14:43:47;11.20;85.80
24260;DHT22;12384;48.112;18.418;2023-10-19T14:46:17;11.20;86.20
24260;DHT22;12384;48.112;18.418;2023-10-19T14:48:45;11.10;86.50
24260;DHT22;12384;48.112;18.418;2023-10-19T14:51:14;11.10;87.00
24260;DHT22;12384;48.112;18.418;2023-10-19T14:53:43;11.10;88.10
24260;DHT22;12384;48.112;18.418;2023-10-19T14:56:12;11.00;88.60
24260;DHT22;12384;48.112;18.418;2023-10-19T14:58:40;11.00;89.40
24260;DHT22;12384;48.112;18.418;2023-10-19T15:01:09;11.00;89.70
24260;DHT22;12384;48.112;18.418;2023-10-19T15:03:45;11.00;90.10
24260;DHT22;12384;48.112;18.418;2023-10-19T15:06:14;11.00;90.40
24260;DHT22;12384;48.112;18.418;2023-10-19T15:08:45;10.90;90.60
24260;DHT22;12384;48.112;18.418;2023-10-19T15:11:17;10.90;90.90
24260;DHT22;12384;48.112;18.418;2023-10-19T15:13:47;10.90;91.20
24260;DHT22;12384;48.112;18.418;2023-10-19T15:16:16;10.90;91.50
24260;DHT22;12384;48.112;18.418;2023-10-19T15:18:46;10.90;91.70
24260;DHT22;12384;48.112;18.418;2023-10-19T15:21:15;10.80;92.00
24260;DHT22;12384;48.112;18.418;2023-10-19T15:23:44;10.80;92.30
24260;DHT22;12384;48.112;18.418;2023-10-19T15:26:16;10.80;92.60
24260;DHT22;12384;48.112;18.418;2023-10-19T15:28:45;10.80;93.00
24260;DHT22;12384;48.112;18.418;2023-10-19T15:31:14;10.80;93.70
24260;DHT22;12384;48.112;18.418;2023-10-19T15:33:43;10.80;94.00
24260;DHT22;12384;48.112;18.418;2023-10-19T15:36:14;10.80;94.30
24260;DHT22;12384;48.112;18.418;2023-10-19T15:38:43;10.80;94.50
24260;DHT22;12384;48.112;18.418;2023-10-19T15:41:12;10.80;94.90
24260;DHT22;12384;48.112;18.418;2023-10-19T15:43:43;10.80;95.00
24260;DHT22;12384;48.112;18.418;2023-10-19T15:46:12;10.80;95.20
24260;DHT22;12384;48.112;18.418;2023-10-19T15:48:43;10.80;95.50
24260;DHT22;12384;48.112;18.418;2023-10-19T15:51:11;10.80;95.40
24260;DHT22;12384;48.112;18.418;2023-10-19T15:53:41;10.80;95.60
24260;DHT22;12384;48.112;18.418;2023-10-19T15:56:12;10.80;95.70
24260;DHT22;12384;48.112;18.418;2023-10-19T15:58:44;10.80;95.90
24260;DHT22;12384;48.112;18.418;2023-10-19T16:01:12;10.80;96.10
24260;DHT22;12384;48.112;18.418;2023-10-19T16:03:43;10.80;96.20
24260;DHT22;12384;48.112;18.418;2023-10-19T16:06:13;10.80;96.50
24260;DHT22;12384;48.112;18.418;2023-10-19T16:08:43;10.80;96.70
24260;DHT22;12384;48.112;18.418;2023-10-19T16:11:12;10.80;97.00
24260;DHT22;12384;48.112;18.418;2023-10-19T16:13:41;10.90;97.10
24260;DHT22;12384;48.112;18.418;2023-10-19T16:16:11;10.90;97.10
24260;DHT22;12384;48.112;18.418;2023-10-19T16:18:40;10.90;97.10
24260;DHT22;12384;48.112;18.418;2023-10-19T16:21:09;10.90;97.20
24260;DHT22;12384;48.112;18.418;2023-10-19T16:23:37;10.90;97.30
24260;DHT22;12384;48.112;18.418;2023-10-19T16:26:07;11.00;97.40
24260;DHT22;12384;48.112;18.418;2023-10-19T16:28:36;11.00;97.40
24260;DHT22;12384;48.112;18.418;2023-10-19T16:31:04;10.90;97.20
24260;DHT22;12384;48.112;18.418;2023-10-19T16:33:33;11.00;97.30
24260;DHT22;12384;48.112;18.418;2023-10-19T16:36:03;11.00;97.20
24260;DHT22;12384;48.112;18.418;2023-10-19T16:38:31;11.00;97.10
24260;DHT22;12384;48.112;18.418;2023-10-19T16:41:01;11.00;97.00
24260;DHT22;12384;48.112;18.418;2023-10-19T16:43:31;11.00;96.90
24260;DHT22;12384;48.112;18.418;2023-10-19T16:45:59;11.00;96.90
24260;DHT22;12384;48.112;18.418;2023-10-19T16:48:28;11.00;96.90
24260;DHT22;12384;48.112;18.418;2023-10-19T16:51:00;11.00;96.90
24260;DHT22;12384;48.112;18.418;2023-10-19T16:53:29;11.00;97.00
24260;DHT22;12384;48.112;18.418;2023-10-19T16:55:59;11.00;97.00
24260;DHT22;12384;48.112;18.418;2023-10-19T16:58:29;11.00;97.00
24260;DHT22;12384;48.112;18.418;2023-10-19T17:00:58;11.00;97.20
24260;DHT22;12384;48.112;18.418;2023-10-19T17:03:27;11.00;97.10
24260;DHT22;12384;48.112;18.418;2023-10-19T17:05:57;11.00;97.00
24260;DHT22;12384;48.112;18.418;2023-10-19T17:08:25;11.00;96.90
24260;DHT22;12384;48.112;18.418;2023-10-19T17:10:54;11.00;97.00
24260;DHT22;12384;48.112;18.418;2023-10-19T17:13:25;11.00;96.90
24260;DHT22;12384;48.112;18.418;2023-10-19T17:15:53;10.90;96.90
24260;DHT22;12384;48.112;18.418;2023-10-19T17:18:23;10.90;97.00
24260;DHT22;12384;48.112;18.418;2023-10-19T17:20:53;10.90;97.00
24260;DHT22;12384;48.112;18.418;2023-10-19T17:23:21;10.90;97.20
24260;DHT22;12384;48.112;18.418;2023-10-19T17:25:50;10.90;97.20
24260;DHT22;12384;48.112;18.418;2023-10-19T17:28:19;10.90;97.40
24260;DHT22;12384;48.112;18.418;2023-10-19T17:30:49;10.90;97.40
24260;DHT22;12384;48.112;18.418;2023-10-19T17:33:18;10.90;97.50
24260;DHT22;12384;48.112;18.418;2023-10-19T17:35:48;10.90;97.60
24260;DHT22;12384;48.112;18.418;2023-10-19T17:38:17;10.80;97.60
24260;DHT22;12384;48.112;18.418;2023-10-19T17:40:45;10.80;97.90
24260;DHT22;12384;48.112;18.418;2023-10-19T17:43:14;10.80;98.10
24260;DHT22;12384;48.112;18.418;2023-10-19T17:45:46;10.80;98.30
24260;DHT22;12384;48.112;18.418;2023-10-19T17:48:14;10.80;98.50
24260;DHT22;12384;48.112;18.418;2023-10-19T17:50:44;10.80;98.70
24260;DHT22;12384;48.112;18.418;2023-10-19T17:53:16;10.80;98.70
24260;DHT22;12384;48.112;18.418;2023-10-19T17:55:44;10.80;98.70
24260;DHT22;12384;48.112;18.418;2023-10-19T17:58:13;10.80;98.80
24260;DHT22;12384;48.112;18.418;2023-10-19T18:00:42;10.80;99.00
24260;DHT22;12384;48.112;18.418;2023-10-19T18:03:11;10.80;99.10
24260;DHT22;12384;48.112;18.418;2023-10-19T18:05:45;10.80;99.30
24260;DHT22;12384;48.112;18.418;2023-10-19T18:08:16;10.70;99.40
24260;DHT22;12384;48.112;18.418;2023-10-19T18:10:45;10.80;99.70
24260;DHT22;12384;48.112;18.418;2023-10-19T18:13:14;10.70;99.70
24260;DHT22;12384;48.112;18.418;2023-10-19T18:15:43;10.70;99.90
24260;DHT22;12384;48.112;18.418;2023-10-19T18:18:16;10.80;99.90
24260;DHT22;12384;48.112;18.418;2023-10-19T18:20:44;10.80;99.90
24260;DHT22;12384;48.112;18.418;2023-10-19T18:23:13;10.80;99.90
24260;DHT22;12384;48.112;18.418;2023-10-19T18:25:44;10.80;99.90
24260;DHT22;12384;48.112;18.418;2023-10-19T18:28:12;10.80;99.90
24260;DHT22;12384;48.112;18.418;2023-10-19T18:30:41;10.80;99.90
24260;DHT22;12384;48.112;18.418;2023-10-19T18:33:11;10.80;99.90
24260;DHT22;12384;48.112;18.418;2023-10-19T18:35:40;10.80;99.90
24260;DHT22;12384;48.112;18.418;2023-10-19T18:38:09;10.80;99.90
24260;DHT22;12384;48.112;18.418;2023-10-19T18:40:38;10.80;99.90
24260;DHT22;12384;48.112;18.418;2023-10-19T18:43:09;10.80;99.90
24260;DHT22;12384;48.112;18.418;2023-10-19T18:45:37;10.90;99.90
24260;DHT22;12384;48.112;18.418;2023-10-19T18:48:06;10.90;99.90
24260;DHT22;12384;48.112;18.418;2023-10-19T18:50:35;10.90;99.90
24260;DHT22;12384;48.112;18.418;2023-10-19T18:53:03;10.90;99.90
24260;DHT22;12384;48.112;18.418;2023-10-19T18:55:32;10.90;99.90
24260;DHT22;12384;48.112;18.418;2023-10-19T18:58:02;11.00;99.90
24260;DHT22;12384;48.112;18.418;2023-10-19T19:00:34;11.00;99.90
24260;DHT22;12384;48.112;18.418;2023-10-19T19:03:11;11.00;99.90
24260;DHT22;12384;48.112;18.418;2023-10-19T19:05:40;11.00;99.90
24260;DHT22;12384;48.112;18.418;2023-10-19T19:08:09;11.00;99.90
24260;DHT22;12384;48.112;18.418;2023-10-19T19:10:39;11.00;99.90
24260;DHT22;12384;48.112;18.418;2023-10-19T19:13:07;11.00;99.90
24260;DHT22;12384;48.112;18.418;2023-10-19T19:15:38;11.00;99.90
24260;DHT22;12384;48.112;18.418;2023-10-19T19:18:07;11.00;99.90
24260;DHT22;12384;48.112;18.418;2023-10-19T19:20:38;11.00;99.90
24260;DHT22;12384;48.112;18.418;2023-10-19T19:23:07;11.00;99.90
24260;DHT22;12384;48.112;18.418;2023-10-19T19:25:36;11.00;99.90
24260;DHT22;12384;48.112;18.418;2023-10-19T19:28:05;11.00;99.90
24260;DHT22;12384;48.112;18.418;2023-10-19T19:30:35;11.00;99.90
24260;DHT22;12384;48.112;18.418;2023-10-19T19:33:05;11.00;99.90
24260;DHT22;12384;48.112;18.418;2023-10-19T19:35:35;11.00;99.90
24260;DHT22;12384;48.112;18.418;2023-10-19T19:38:04;11.00;99.90
24260;DHT22;12384;48.112;18.418;2023-10-19T19:40:33;11.00;99.90
24260;DHT22;12384;48.112;18.418;2023-10-19T19:43:01;11.00;99.90
24260;DHT22;12384;48.112;18.418;2023-10-19T19:45:30;11.00;99.90
24260;DHT22;12384;48.112;18.418;2023-10-19T19:47:58;11.10;99.90
24260;DHT22;12384;48.112;18.418;2023-10-19T19:50:28;11.10;99.90
24260;DHT22;12384;48.112;18.418;2023-10-19T19:52:56;11.10;99.90
24260;DHT22;12384;48.112;18.418;2023-10-19T19:55:25;11.10;99.90
24260;DHT22;12384;48.112;18.418;2023-10-19T19:57:55;11.10;99.90
24260;DHT22;12384;48.112;18.418;2023-10-19T20:00:23;11.10;99.90
24260;DHT22;12384;48.112;18.418;2023-10-19T20:02:52;11.10;99.90
24260;DHT22;12384;48.112;18.418;2023-10-19T20:05:21;11.10;99.90
24260;DHT22;12384;48.112;18.418;2023-10-19T20:07:51;11.20;99.90
24260;DHT22;12384;48.112;18.418;2023-10-19T20:10:20;11.20;99.90
24260;DHT22;12384;48.112;18.418;2023-10-19T20:12:49;11.20;99.90
24260;DHT22;12384;48.112;18.418;2023-10-19T20:15:17;11.20;99.90
24260;DHT22;12384;48.112;18.418;2023-10-19T20:17:46;11.20;99.90
24260;DHT22;12384;48.112;18.418;2023-10-19T20:20:14;11.20;99.90
24260;DHT22;12384;48.112;18.418;2023-10-19T20:22:43;11.20;99.90
24260;DHT22;12384;48.112;18.418;2023-10-19T20:25:13;11.20;99.90
24260;DHT22;12384;48.112;18.418;2023-10-19T20:27:42;11.30;99.90
24260;DHT22;12384;48.112;18.418;2023-10-19T20:30:11;11.30;99.90
24260;DHT22;12384;48.112;18.418;2023-10-19T20:32:40;11.30;99.90
24260;DHT22;12384;48.112;18.418;2023-10-19T20:35:12;11.30;99.90
24260;DHT22;12384;48.112;18.418;2023-10-19T20:37:41;11.30;99.90
24260;DHT22;12384;48.112;18.418;2023-10-19T20:40:10;11.30;99.90
24260;DHT22;12384;48.112;18.418;2023-10-19T20:42:40;11.30;99.90
24260;DHT22;12384;48.112;18.418;2023-10-19T20:45:11;11.30;99.90
24260;DHT22;12384;48.112;18.418;2023-10-19T20:47:39;11.30;99.90
24260;DHT22;12384;48.112;18.418;2023-10-19T20:50:09;11.30;99.90
24260;DHT22;12384;48.112;18.418;2023-10-19T20:52:38;11.30;99.90
24260;DHT22;12384;48.112;18.418;2023-10-19T20:55:08;11.20;99.90
24260;DHT22;12384;48.112;18.418;2023-10-19T20:57:40;11.20;99.90
24260;DHT22;12384;48.112;18.418;2023-10-19T21:00:09;11.20;99.90
24260;DHT22;12384;48.112;18.418;2023-10-19T21:02:39;11.20;99.90
24260;DHT22;12384;48.112;18.418;2023-10-19T21:05:09;11.20;99.90
24260;DHT22;12384;48.112;18.418;2023-10-19T21:07:38;11.20;99.90
24260;DHT22;12384;48.112;18.418;2023-10-19T21:10:08;11.10;99.90
24260;DHT22;12384;48.112;18.418;2023-10-19T21:12:40;11.20;99.90
24260;DHT22;12384;48.112;18.418;2023-10-19T21:15:09;11.20;99.90
24260;DHT22;12384;48.112;18.418;2023-10-19T21:17:40;11.20;99.90
24260;DHT22;12384;48.112;18.418;2023-10-19T21:20:11;11.10;99.90
24260;DHT22;12384;48.112;18.418;2023-10-19T21:22:40;11.20;99.90
24260;DHT22;12384;48.112;18.418;2023-10-19T21:25:11;11.10;99.90
24260;DHT22;12384;48.112;18.418;2023-10-19T21:27:41;11.10;99.90
24260;DHT22;12384;48.112;18.418;2023-10-19T21:30:12;11.10;99.90
24260;DHT22;12384;48.112;18.418;2023-10-19T21:32:43;11.10;99.90
24260;DHT22;12384;48.112;18.418;2023-10-19T21:35:12;11.10;99.90
24260;DHT22;12384;48.112;18.418;2023-10-19T21:37:43;11.10;99.90
24260;DHT22;12384;48.112;18.418;2023-10-19T21:40:12;11.00;99.90
24260;DHT22;12384;48.112;18.418;2023-10-19T21:42:42;11.10;99.90
24260;DHT22;12384;48.112;18.418;2023-10-19T21:45:14;11.00;99.90
24260;DHT22;12384;48.112;18.418;2023-10-19T21:47:43;11.00;99.90
24260;DHT22;12384;48.112;18.418;2023-10-19T21:50:12;11.00;99.90
24260;DHT22;12384;48.112;18.418;2023-10-19T21:52:41;11.00;99.90
24260;DHT22;12384;48.112;18.418;2023-10-19T21:55:09;10.90;99.90
24260;DHT22;12384;48.112;18.418;2023-10-19T21:57:39;11.00;99.90
24260;DHT22;12384;48.112;18.418;2023-10-19T22:00:10;11.00;99.90
24260;DHT22;12384;48.112;18.418;2023-10-19T22:02:42;11.00;99.90
24260;DHT22;12384;48.112;18.418;2023-10-19T22:05:14;11.00;99.90
24260;DHT22;12384;48.112;18.418;2023-10-19T22:07:52;11.00;99.90
24260;DHT22;12384;48.112;18.418;2023-10-19T22:10:20;11.00;99.90
24260;DHT22;12384;48.112;18.418;2023-10-19T22:12:50;11.00;99.90
24260;DHT22;12384;48.112;18.418;2023-10-19T22:15:21;11.00;99.90
24260;DHT22;12384;48.112;18.418;2023-10-19T22:17:49;11.00;99.90
24260;DHT22;12384;48.112;18.418;2023-10-19T22:20:18;11.00;99.90
24260;DHT22;12384;48.112;18.418;2023-10-19T22:22:48;11.10;99.90
24260;DHT22;12384;48.112;18.418;2023-10-19T22:25:17;11.00;99.90
24260;DHT22;12384;48.112;18.418;2023-10-19T22:27:49;11.10;99.90
24260;DHT22;12384;48.112;18.418;2023-10-19T22:30:21;11.00;99.90
24260;DHT22;12384;48.112;18.418;2023-10-19T22:32:50;11.00;99.90
24260;DHT22;12384;48.112;18.418;2023-10-19T22:35:20;11.00;99.90
24260;DHT22;12384;48.112;18.418;2023-10-19T22:37:48;11.00;99.90
24260;DHT22;12384;48.112;18.418;2023-10-19T22:40:17;11.00;99.90
24260;DHT22;12384;48.112;18.418;2023-10-19T22:42:47;11.00;99.90
24260;DHT22;12384;48.112;18.418;2023-10-19T22:45:15;11.00;99.90
24260;DHT22;12384;48.112;18.418;2023-10-19T22:47:47;10.90;99.90
24260;DHT22;12384;48.112;18.418;2023-10-19T22:50:16;10.90;99.90
24260;DHT22;12384;48.112;18.418;2023-10-19T22:52:45;10.90;99.90
24260;DHT22;12384;48.112;18.418;2023-10-19T22:55:14;10.90;99.90
24260;DHT22;12384;48.112;18.418;2023-10-19T22:57:45;10.90;99.90
24260;DHT22;12384;48.112;18.418;2023-10-19T23:00:18;10.90;99.90
24260;DHT22;12384;48.112;18.418;2023-10-19T23:02:48;10.90;99.90
24260;DHT22;12384;48.112;18.418;2023-10-19T23:05:17;10.90;99.90
24260;DHT22;12384;48.112;18.418;2023-10-19T23:07:47;10.90;99.90
24260;DHT22;12384;48.112;18.418;2023-10-19T23:10:18;10.90;99.90
24260;DHT22;12384;48.112;18.418;2023-10-19T23:12:48;10.90;99.90
24260;DHT22;12384;48.112;18.418;2023-10-19T23:15:20;10.90;99.90
24260;DHT22;12384;48.112;18.418;2023-10-19T23:18:00;10.90;99.90
24260;DHT22;12384;48.112;18.418;2023-10-19T23:20:31;10.90;99.90
24260;DHT22;12384;48.112;18.418;2023-10-19T23:23:00;11.00;99.90
24260;DHT22;12384;48.112;18.418;2023-10-19T23:25:32;11.00;99.90
24260;DHT22;12384;48.112;18.418;2023-10-19T23:28:02;11.00;99.90
24260;DHT22;12384;48.112;18.418;2023-10-19T23:30:33;11.00;99.90
24260;DHT22;12384;48.112;18.418;2023-10-19T23:33:06;11.00;99.90
24260;DHT22;12384;48.112;18.418;2023-10-19T23:35:35;11.00;99.90
24260;DHT22;12384;48.112;18.418;2023-10-19T23:38:05;11.10;99.90
24260;DHT22;12384;48.112;18.418;2023-10-19T23:40:35;11.10;99.90
24260;DHT22;12384;48.112;18.418;2023-10-19T23:43:04;11.10;99.90
24260;DHT22;12384;48.112;18.418;2023-10-19T23:45:36;11.10;99.90
24260;DHT22;12384;48.112;18.418;2023-10-19T23:48:07;11.10;99.90
24260;DHT22;12384;48.112;18.418;2023-10-19T23:50:39;11.20;99.90
24260;DHT22;12384;48.112;18.418;2023-10-19T23:53:07;11.20;99.90
24260;DHT22;12384;48.112;18.418;2023-10-19T23:55:38;11.20;99.90
24260;DHT22;12384;48.112;18.418;2023-10-19T23:58:08;11.20;99.90
